sensor_id;sensor_type;location;lat;lon;timestamp;pressure;altitude;pressure_sealevel;temperature;humidity
74045;BME280;62389;51.412;5.436;2023-02-26T00:02:11;101725.84;;;-0.47;75.61
74045;BME280;62389;51.412;5.436;2023-02-26T00:04:36;101726.69;;;-0.48;75.61
74045;BME280;62389;51.412;5.436;2023-02-26T00:07:03;101724.97;;;-0.49;75.55
74045;BME280;62389;51.412;5.436;2023-02-26T00:09:30;101725.84;;;-0.49;76.00
74045;BME280;62389;51.412;5.436;2023-02-26T00:11:56;101731.84;;;-0.47;76.37
74045;BME280;62389;51.412;5.436;2023-02-26T00:14:22;101731.84;;;-0.48;76.39
74045;BME280;62389;51.412;5.436;2023-02-26T00:17:12;101742.09;;;-0.50;76.26
74045;BME280;62389;51.412;5.436;2023-02-26T00:19:41;101750.63;;;-0.51;77.01
74045;BME280;62389;51.412;5.436;2023-02-26T00:22:06;101748.91;;;-0.50;76.25
74045;BME280;62389;51.412;5.436;2023-02-26T00:24:32;101749.81;;;-0.50;76.48
74045;BME280;62389;51.412;5.436;2023-02-26T00:26:57;101745.47;;;-0.53;75.98
74045;BME280;62389;51.412;5.436;2023-02-26T00:29:23;101749.72;;;-0.55;76.93
74045;BME280;62389;51.412;5.436;2023-02-26T00:31:49;101761.72;;;-0.54;77.59
74045;BME280;62389;51.412;5.436;2023-02-26T00:34:14;101752.31;;;-0.55;77.20
74045;BME280;62389;51.412;5.436;2023-02-26T00:36:45;101760.00;;;-0.55;77.60
74045;BME280;62389;51.412;5.436;2023-02-26T00:41:44;101757.47;;;-0.52;77.96
74045;BME280;62389;51.412;5.436;2023-02-26T00:44:10;101765.25;;;-0.48;77.76
74045;BME280;62389;51.412;5.436;2023-02-26T00:55:13;101781.00;;;-0.27;79.10
74045;BME280;62389;51.412;5.436;2023-02-26T00:57:38;101781.09;;;-0.22;78.70
74045;BME280;62389;51.412;5.436;2023-02-26T01:00:04;101779.44;;;-0.19;78.44
74045;BME280;62389;51.412;5.436;2023-02-26T01:02:33;101781.16;;;-0.16;78.42
74045;BME280;62389;51.412;5.436;2023-02-26T01:04:59;101782.09;;;-0.13;78.44
74045;BME280;62389;51.412;5.436;2023-02-26T01:07:26;101778.72;;;-0.09;78.99
74045;BME280;62389;51.412;5.436;2023-02-26T01:09:53;101786.44;;;-0.09;78.70
74045;BME280;62389;51.412;5.436;2023-02-26T01:12:19;101786.41;;;-0.10;78.13
74045;BME280;62389;51.412;5.436;2023-02-26T01:14:44;101784.66;;;-0.14;78.80
74045;BME280;62389;51.412;5.436;2023-02-26T01:17:22;101789.66;;;-0.20;78.21
74045;BME280;62389;51.412;5.436;2023-02-26T01:20:13;101790.44;;;-0.26;77.85
74045;BME280;62389;51.412;5.436;2023-02-26T01:22:41;101796.41;;;-0.30;79.05
74045;BME280;62389;51.412;5.436;2023-02-26T01:25:12;101787.75;;;-0.34;79.67
74045;BME280;62389;51.412;5.436;2023-02-26T01:27:39;101789.50;;;-0.33;79.30
74045;BME280;62389;51.412;5.436;2023-02-26T01:30:06;101790.41;;;-0.29;79.24
74045;BME280;62389;51.412;5.436;2023-02-26T01:35:12;101792.28;;;-0.19;78.44
74045;BME280;62389;51.412;5.436;2023-02-26T01:37:52;101788.03;;;-0.17;78.34
74045;BME280;62389;51.412;5.436;2023-02-26T01:41:15;101794.06;;;-0.15;77.74
74045;BME280;62389;51.412;5.436;2023-02-26T01:43:55;101796.66;;;-0.15;77.05
74045;BME280;62389;51.412;5.436;2023-02-26T01:46:27;101797.47;;;-0.16;77.61
74045;BME280;62389;51.412;5.436;2023-02-26T01:48:57;101800.00;;;-0.17;77.90
74045;BME280;62389;51.412;5.436;2023-02-26T01:54:06;101803.44;;;-0.18;77.22
74045;BME280;62389;51.412;5.436;2023-02-26T01:56:32;101799.16;;;-0.18;78.05
74045;BME280;62389;51.412;5.436;2023-02-26T01:58:57;101808.56;;;-0.20;77.47
74045;BME280;62389;51.412;5.436;2023-02-26T02:01:23;101808.50;;;-0.21;77.38
74045;BME280;62389;51.412;5.436;2023-02-26T02:03:49;101804.22;;;-0.24;78.53
74045;BME280;62389;51.412;5.436;2023-02-26T02:06:17;101811.00;;;-0.28;78.14
74045;BME280;62389;51.412;5.436;2023-02-26T02:08:44;101815.25;;;-0.30;78.05
74045;BME280;62389;51.412;5.436;2023-02-26T02:11:10;101819.53;;;-0.30;78.05
74045;BME280;62389;51.412;5.436;2023-02-26T02:19:52;101839.22;;;-0.31;77.38
74045;BME280;62389;51.412;5.436;2023-02-26T02:33:44;101849.47;;;-0.34;77.87
74045;BME280;62389;51.412;5.436;2023-02-26T02:36:22;101850.31;;;-0.33;77.63
74045;BME280;62389;51.412;5.436;2023-02-26T02:38:53;101845.19;;;-0.33;77.63
74045;BME280;62389;51.412;5.436;2023-02-26T02:41:33;101848.59;;;-0.34;77.14
74045;BME280;62389;51.412;5.436;2023-02-26T02:44:03;101861.47;;;-0.33;76.88
74045;BME280;62389;51.412;5.436;2023-02-26T02:46:34;101862.31;;;-0.34;77.02
74045;BME280;62389;51.412;5.436;2023-02-26T02:49:30;101865.75;;;-0.33;77.12
74045;BME280;62389;51.412;5.436;2023-02-26T02:52:09;101862.25;;;-0.35;76.85
74045;BME280;62389;51.412;5.436;2023-02-26T02:54:45;101863.97;;;-0.36;77.30
74045;BME280;62389;51.412;5.436;2023-02-26T02:59:45;101869.09;;;-0.37;76.62
74045;BME280;62389;51.412;5.436;2023-02-26T03:04:55;101863.88;;;-0.40;76.39
74045;BME280;62389;51.412;5.436;2023-02-26T03:07:21;101876.72;;;-0.42;76.47
74045;BME280;62389;51.412;5.436;2023-02-26T03:09:47;101879.28;;;-0.43;76.30
74045;BME280;62389;51.412;5.436;2023-02-26T03:12:13;101876.69;;;-0.45;75.69
74045;BME280;62389;51.412;5.436;2023-02-26T03:14:39;101872.34;;;-0.46;75.85
74045;BME280;62389;51.412;5.436;2023-02-26T03:17:18;101879.16;;;-0.49;75.27
74045;BME280;62389;51.412;5.436;2023-02-26T03:20:16;101880.81;;;-0.53;74.72
74045;BME280;62389;51.412;5.436;2023-02-26T03:22:56;101893.66;;;-0.53;75.35
74045;BME280;62389;51.412;5.436;2023-02-26T03:25:48;101887.66;;;-0.54;74.54
74045;BME280;62389;51.412;5.436;2023-02-26T03:28:31;101888.50;;;-0.55;74.04
74045;BME280;62389;51.412;5.436;2023-02-26T03:31:07;101891.06;;;-0.55;74.26
74045;BME280;62389;51.412;5.436;2023-02-26T03:33:46;101891.88;;;-0.56;74.33
74045;BME280;62389;51.412;5.436;2023-02-26T03:38:52;101905.56;;;-0.58;74.53
74045;BME280;62389;51.412;5.436;2023-02-26T03:41:24;101909.84;;;-0.59;74.51
74045;BME280;62389;51.412;5.436;2023-02-26T03:44:01;101911.50;;;-0.61;74.78
74045;BME280;62389;51.412;5.436;2023-02-26T03:46:33;101906.31;;;-0.64;74.58
74045;BME280;62389;51.412;5.436;2023-02-26T03:49:04;101910.53;;;-0.66;74.69
74045;BME280;62389;51.412;5.436;2023-02-26T03:51:31;101922.53;;;-0.66;74.63
74045;BME280;62389;51.412;5.436;2023-02-26T03:54:03;101926.78;;;-0.68;75.31
74045;BME280;62389;51.412;5.436;2023-02-26T03:56:36;101927.56;;;-0.71;75.04
74045;BME280;62389;51.412;5.436;2023-02-26T03:59:03;101927.53;;;-0.72;74.89
74045;BME280;62389;51.412;5.436;2023-02-26T04:01:36;101935.22;;;-0.74;75.92
74045;BME280;62389;51.412;5.436;2023-02-26T04:04:10;101942.88;;;-0.75;75.40
74045;BME280;62389;51.412;5.436;2023-02-26T04:06:38;101940.28;;;-0.77;75.23
74045;BME280;62389;51.412;5.436;2023-02-26T04:09:04;101941.13;;;-0.80;75.73
74045;BME280;62389;51.412;5.436;2023-02-26T04:11:30;101942.81;;;-0.80;75.39
74045;BME280;62389;51.412;5.436;2023-02-26T04:13:56;101950.53;;;-0.80;75.59
74045;BME280;62389;51.412;5.436;2023-02-26T04:16:22;101947.91;;;-0.82;75.43
74045;BME280;62389;51.412;5.436;2023-02-26T04:18:48;101947.03;;;-0.82;75.62
74045;BME280;62389;51.412;5.436;2023-02-26T04:21:15;101953.03;;;-0.83;75.69
74045;BME280;62389;51.412;5.436;2023-02-26T04:23:41;101956.44;;;-0.84;75.64
74045;BME280;62389;51.412;5.436;2023-02-26T04:26:07;101958.91;;;-0.87;75.69
74045;BME280;62389;51.412;5.436;2023-02-26T04:28:32;101964.03;;;-0.89;75.78
74045;BME280;62389;51.412;5.436;2023-02-26T04:30:59;101957.97;;;-0.91;75.51
74045;BME280;62389;51.412;5.436;2023-02-26T04:33:24;101967.38;;;-0.91;75.48
74045;BME280;62389;51.412;5.436;2023-02-26T04:35:51;101974.22;;;-0.93;75.71
74045;BME280;62389;51.412;5.436;2023-02-26T04:38:16;101973.34;;;-0.94;75.90
74045;BME280;62389;51.412;5.436;2023-02-26T04:40:42;101974.13;;;-0.96;75.77
74045;BME280;62389;51.412;5.436;2023-02-26T04:43:07;101977.53;;;-0.97;75.61
74045;BME280;62389;51.412;5.436;2023-02-26T04:45:33;101980.94;;;-0.98;75.46
74045;BME280;62389;51.412;5.436;2023-02-26T04:47:58;101980.03;;;-1.00;75.09
74045;BME280;62389;51.412;5.436;2023-02-26T04:50:23;101983.44;;;-1.01;75.58
74045;BME280;62389;51.412;5.436;2023-02-26T04:52:49;101990.22;;;-1.05;75.64
74045;BME280;62389;51.412;5.436;2023-02-26T04:55:14;101985.88;;;-1.08;75.26
74045;BME280;62389;51.412;5.436;2023-02-26T04:57:39;101986.72;;;-1.09;75.40
74045;BME280;62389;51.412;5.436;2023-02-26T05:00:05;101997.75;;;-1.13;75.24
74045;BME280;62389;51.412;5.436;2023-02-26T05:02:34;102005.41;;;-1.14;75.31
74045;BME280;62389;51.412;5.436;2023-02-26T05:04:59;102007.94;;;-1.16;75.15
74045;BME280;62389;51.412;5.436;2023-02-26T05:07:25;102007.88;;;-1.19;75.02
74045;BME280;62389;51.412;5.436;2023-02-26T05:09:50;102006.94;;;-1.21;75.46
74045;BME280;62389;51.412;5.436;2023-02-26T05:12:16;102011.19;;;-1.23;75.35
74045;BME280;62389;51.412;5.436;2023-02-26T05:14:41;102014.59;;;-1.24;75.36
74045;BME280;62389;51.412;5.436;2023-02-26T05:17:07;102020.50;;;-1.26;75.33
74045;BME280;62389;51.412;5.436;2023-02-26T05:19:33;102020.50;;;-1.28;75.37
74045;BME280;62389;51.412;5.436;2023-02-26T05:21:58;102026.47;;;-1.29;75.26
74045;BME280;62389;51.412;5.436;2023-02-26T05:24:23;102024.72;;;-1.30;74.92
74045;BME280;62389;51.412;5.436;2023-02-26T05:26:49;102026.38;;;-1.32;74.72
74045;BME280;62389;51.412;5.436;2023-02-26T05:29:14;102032.34;;;-1.33;75.14
74045;BME280;62389;51.412;5.436;2023-02-26T05:31:40;102033.19;;;-1.34;74.44
74045;BME280;62389;51.412;5.436;2023-02-26T05:34:06;102033.19;;;-1.34;74.54
74045;BME280;62389;51.412;5.436;2023-02-26T05:36:31;102038.34;;;-1.33;74.45
74045;BME280;62389;51.412;5.436;2023-02-26T05:38:56;102034.03;;;-1.35;74.61
74045;BME280;62389;51.412;5.436;2023-02-26T05:41:22;102038.22;;;-1.37;74.24
74045;BME280;62389;51.412;5.436;2023-02-26T05:43:47;102041.63;;;-1.38;74.02
74045;BME280;62389;51.412;5.436;2023-02-26T05:46:13;102042.47;;;-1.39;73.69
74045;BME280;62389;51.412;5.436;2023-02-26T05:48:38;102035.63;;;-1.39;73.10
74045;BME280;62389;51.412;5.436;2023-02-26T05:51:03;102039.94;;;-1.38;73.05
74045;BME280;62389;51.412;5.436;2023-02-26T05:53:29;102045.94;;;-1.37;73.54
74045;BME280;62389;51.412;5.436;2023-02-26T05:55:54;102046.75;;;-1.38;72.93
74045;BME280;62389;51.412;5.436;2023-02-26T05:58:20;102047.63;;;-1.38;73.13
74045;BME280;62389;51.412;5.436;2023-02-26T06:00:45;102058.75;;;-1.37;72.54
74045;BME280;62389;51.412;5.436;2023-02-26T06:03:11;102059.59;;;-1.38;72.58
74045;BME280;62389;51.412;5.436;2023-02-26T06:05:36;102063.84;;;-1.40;73.19
74045;BME280;62389;51.412;5.436;2023-02-26T06:08:03;102068.88;;;-1.43;73.20
74045;BME280;62389;51.412;5.436;2023-02-26T06:10:29;102067.09;;;-1.46;72.95
74045;BME280;62389;51.412;5.436;2023-02-26T06:12:54;102077.34;;;-1.46;72.85
74045;BME280;62389;51.412;5.436;2023-02-26T06:15:19;102078.25;;;-1.45;72.59
74045;BME280;62389;51.412;5.436;2023-02-26T06:17:45;102080.81;;;-1.45;72.47
74045;BME280;62389;51.412;5.436;2023-02-26T06:20:11;102080.81;;;-1.45;73.21
74045;BME280;62389;51.412;5.436;2023-02-26T06:22:37;102085.94;;;-1.45;72.20
74045;BME280;62389;51.412;5.436;2023-02-26T06:25:02;102090.19;;;-1.46;72.44
74045;BME280;62389;51.412;5.436;2023-02-26T06:27:28;102095.28;;;-1.47;72.27
74045;BME280;62389;51.412;5.436;2023-02-26T06:29:53;102104.78;;;-1.45;72.23
74045;BME280;62389;51.412;5.436;2023-02-26T06:32:19;102111.63;;;-1.45;72.14
74045;BME280;62389;51.412;5.436;2023-02-26T06:34:44;102111.63;;;-1.45;72.55
74045;BME280;62389;51.412;5.436;2023-02-26T06:37:09;102111.66;;;-1.44;72.05
74045;BME280;62389;51.412;5.436;2023-02-26T06:39:35;102120.22;;;-1.43;71.86
74045;BME280;62389;51.412;5.436;2023-02-26T06:42:00;102125.34;;;-1.43;71.63
74045;BME280;62389;51.412;5.436;2023-02-26T06:44:25;102124.50;;;-1.42;72.23
74045;BME280;62389;51.412;5.436;2023-02-26T06:46:51;102131.34;;;-1.43;72.35
74045;BME280;62389;51.412;5.436;2023-02-26T06:49:16;102130.47;;;-1.43;72.13
74045;BME280;62389;51.412;5.436;2023-02-26T06:51:42;102150.16;;;-1.42;71.78
74045;BME280;62389;51.412;5.436;2023-02-26T06:54:07;102148.53;;;-1.40;71.77
74045;BME280;62389;51.412;5.436;2023-02-26T06:56:33;102150.28;;;-1.38;72.09
74045;BME280;62389;51.412;5.436;2023-02-26T06:58:58;102152.03;;;-1.37;71.60
74045;BME280;62389;51.412;5.436;2023-02-26T07:01:23;102159.78;;;-1.35;72.64
74045;BME280;62389;51.412;5.436;2023-02-26T07:03:49;102169.22;;;-1.34;71.71
74045;BME280;62389;51.412;5.436;2023-02-26T07:06:15;102174.41;;;-1.31;71.54
74045;BME280;62389;51.412;5.436;2023-02-26T07:08:40;102179.63;;;-1.28;71.52
74045;BME280;62389;51.412;5.436;2023-02-26T07:11:06;102179.72;;;-1.25;71.50
74045;BME280;62389;51.412;5.436;2023-02-26T07:13:32;102184.94;;;-1.22;71.51
74045;BME280;62389;51.412;5.436;2023-02-26T07:15:58;102179.88;;;-1.19;71.16
74045;BME280;62389;51.412;5.436;2023-02-26T07:18:23;102184.19;;;-1.18;71.15
74045;BME280;62389;51.412;5.436;2023-02-26T07:20:49;102191.91;;;-1.16;71.22
74045;BME280;62389;51.412;5.436;2023-02-26T07:23:15;102202.31;;;-1.12;71.86
74045;BME280;62389;51.412;5.436;2023-02-26T07:25:40;102210.94;;;-1.10;71.08
74045;BME280;62389;51.412;5.436;2023-02-26T07:28:06;102207.59;;;-1.06;71.39
74045;BME280;62389;51.412;5.436;2023-02-26T07:30:32;102219.03;;;-0.94;71.79
74045;BME280;62389;51.412;5.436;2023-02-26T07:32:57;102223.97;;;-0.69;71.26
74045;BME280;62389;51.412;5.436;2023-02-26T07:35:23;102228.53;;;-0.56;70.73
74045;BME280;62389;51.412;5.436;2023-02-26T07:37:48;102232.19;;;-0.47;70.18
74045;BME280;62389;51.412;5.436;2023-02-26T07:40:14;102235.81;;;-0.39;69.67
74045;BME280;62389;51.412;5.436;2023-02-26T07:42:39;102233.38;;;-0.33;68.93
74045;BME280;62389;51.412;5.436;2023-02-26T07:45:05;102240.56;;;-0.18;69.59
74045;BME280;62389;51.412;5.436;2023-02-26T07:47:32;102243.75;;;0.09;68.62
74045;BME280;62389;51.412;5.436;2023-02-26T07:49:58;102245.44;;;0.48;68.17
74045;BME280;62389;51.412;5.436;2023-02-26T07:52:24;102231.88;;;1.03;67.45
74045;BME280;62389;51.412;5.436;2023-02-26T07:54:49;102236.19;;;2.14;64.96
74045;BME280;62389;51.412;5.436;2023-02-26T07:57:15;102236.06;;;3.67;61.35
74045;BME280;62389;51.412;5.436;2023-02-26T07:59:40;102233.22;;;5.45;56.20
74045;BME280;62389;51.412;5.436;2023-02-26T08:02:06;102231.78;;;7.13;52.96
74045;BME280;62389;51.412;5.436;2023-02-26T08:04:31;102234.75;;;8.53;48.81
74045;BME280;62389;51.412;5.436;2023-02-26T08:06:58;102232.97;;;9.68;45.89
74045;BME280;62389;51.412;5.436;2023-02-26T08:09:26;102234.38;;;10.32;43.84
74045;BME280;62389;51.412;5.436;2023-02-26T08:11:51;102238.47;;;10.46;43.09
74045;BME280;62389;51.412;5.436;2023-02-26T08:14:17;102238.50;;;9.98;43.45
74045;BME280;62389;51.412;5.436;2023-02-26T08:16:42;102237.78;;;9.42;43.82
74045;BME280;62389;51.412;5.436;2023-02-26T08:19:08;102246.97;;;9.10;44.31
74045;BME280;62389;51.412;5.436;2023-02-26T08:21:33;102239.03;;;9.18;44.10
74045;BME280;62389;51.412;5.436;2023-02-26T08:23:58;102244.91;;;9.81;43.66
74045;BME280;62389;51.412;5.436;2023-02-26T08:26:24;102246.84;;;11.37;41.06
74045;BME280;62389;51.412;5.436;2023-02-26T08:28:49;102245.28;;;12.90;37.88
74045;BME280;62389;51.412;5.436;2023-02-26T08:31:15;102250.09;;;14.09;36.12
74045;BME280;62389;51.412;5.436;2023-02-26T08:33:41;102246.28;;;15.10;35.43
74045;BME280;62389;51.412;5.436;2023-02-26T08:36:07;102245.41;;;15.94;33.03
74045;BME280;62389;51.412;5.436;2023-02-26T08:38:32;102245.78;;;16.63;31.66
74045;BME280;62389;51.412;5.436;2023-02-26T08:40:58;102241.09;;;17.59;30.45
74045;BME280;62389;51.412;5.436;2023-02-26T08:43:24;102251.22;;;17.86;29.03
74045;BME280;62389;51.412;5.436;2023-02-26T08:45:53;102252.47;;;18.29;30.07
74045;BME280;62389;51.412;5.436;2023-02-26T08:48:20;102253.94;;;18.84;27.53
74045;BME280;62389;51.412;5.436;2023-02-26T08:50:46;102259.84;;;19.35;27.06
74045;BME280;62389;51.412;5.436;2023-02-26T08:53:11;102260.19;;;19.75;26.44
74045;BME280;62389;51.412;5.436;2023-02-26T08:55:36;102264.63;;;20.18;25.95
74045;BME280;62389;51.412;5.436;2023-02-26T08:58:02;102276.34;;;20.86;24.47
74045;BME280;62389;51.412;5.436;2023-02-26T09:00:27;102268.22;;;21.29;24.93
74045;BME280;62389;51.412;5.436;2023-02-26T09:02:54;102262.25;;;21.78;23.67
74045;BME280;62389;51.412;5.436;2023-02-26T09:05:19;102273.59;;;22.45;23.26
74045;BME280;62389;51.412;5.436;2023-02-26T09:07:45;102279.31;;;23.01;22.65
74045;BME280;62389;51.412;5.436;2023-02-26T09:10:11;102277.59;;;23.24;20.94
74045;BME280;62389;51.412;5.436;2023-02-26T09:12:36;102288.22;;;23.37;21.12
74045;BME280;62389;51.412;5.436;2023-02-26T09:15:06;102287.09;;;23.28;21.54
74045;BME280;62389;51.412;5.436;2023-02-26T09:17:32;102298.09;;;23.23;20.75
74045;BME280;62389;51.412;5.436;2023-02-26T09:19:58;102300.78;;;23.71;20.85
74045;BME280;62389;51.412;5.436;2023-02-26T09:22:24;102301.34;;;24.33;20.08
74045;BME280;62389;51.412;5.436;2023-02-26T09:24:49;102304.78;;;24.68;19.36
74045;BME280;62389;51.412;5.436;2023-02-26T09:27:15;102306.31;;;24.93;19.51
74045;BME280;62389;51.412;5.436;2023-02-26T09:29:41;102315.28;;;25.15;18.80
74045;BME280;62389;51.412;5.436;2023-02-26T09:32:06;102307.09;;;25.27;18.17
74045;BME280;62389;51.412;5.436;2023-02-26T09:34:33;102312.88;;;25.12;18.01
74045;BME280;62389;51.412;5.436;2023-02-26T09:36:58;102315.78;;;25.09;17.86
74045;BME280;62389;51.412;5.436;2023-02-26T09:39:24;102321.47;;;25.26;17.44
74045;BME280;62389;51.412;5.436;2023-02-26T09:41:53;102321.66;;;25.35;18.42
74045;BME280;62389;51.412;5.436;2023-02-26T09:44:27;102326.34;;;25.86;19.43
74045;BME280;62389;51.412;5.436;2023-02-26T09:47:32;102336.63;;;26.53;17.39
74045;BME280;62389;51.412;5.436;2023-02-26T09:52:30;102341.41;;;26.99;17.95
74045;BME280;62389;51.412;5.436;2023-02-26T09:55:03;102338.41;;;26.83;17.70
74045;BME280;62389;51.412;5.436;2023-02-26T09:57:33;102338.22;;;26.65;16.21
74045;BME280;62389;51.412;5.436;2023-02-26T10:00:00;102339.34;;;25.90;16.56
74045;BME280;62389;51.412;5.436;2023-02-26T10:02:35;102365.19;;;23.43;19.26
74045;BME280;62389;51.412;5.436;2023-02-26T10:05:17;102368.19;;;21.18;22.76
74045;BME280;62389;51.412;5.436;2023-02-26T10:07:56;102375.13;;;19.45;24.07
74045;BME280;62389;51.412;5.436;2023-02-26T10:13:36;102392.22;;;16.57;26.70
74045;BME280;62389;51.412;5.436;2023-02-26T10:16:11;102387.44;;;15.17;27.74
74045;BME280;62389;51.412;5.436;2023-02-26T10:18:49;102394.16;;;14.02;29.66
74045;BME280;62389;51.412;5.436;2023-02-26T10:21:40;102405.00;;;13.37;31.61
74045;BME280;62389;51.412;5.436;2023-02-26T10:24:16;102394.94;;;12.59;30.88
74045;BME280;62389;51.412;5.436;2023-02-26T10:26:53;102411.28;;;11.65;31.51
74045;BME280;62389;51.412;5.436;2023-02-26T10:29:50;102414.09;;;11.17;32.77
74045;BME280;62389;51.412;5.436;2023-02-26T10:33:05;102419.00;;;10.89;34.04
74045;BME280;62389;51.412;5.436;2023-02-26T10:35:37;102413.53;;;10.56;33.71
74045;BME280;62389;51.412;5.436;2023-02-26T10:38:15;102419.34;;;10.23;33.60
74045;BME280;62389;51.412;5.436;2023-02-26T10:43:22;102412.50;;;9.58;34.07
74045;BME280;62389;51.412;5.436;2023-02-26T10:46:55;102413.59;;;9.42;36.69
74045;BME280;62389;51.412;5.436;2023-02-26T10:51:50;102418.47;;;9.02;36.48
74045;BME280;62389;51.412;5.436;2023-02-26T10:56:51;102428.88;;;9.03;36.35
74045;BME280;62389;51.412;5.436;2023-02-26T10:59:16;102415.66;;;9.20;36.40
74045;BME280;62389;51.412;5.436;2023-02-26T11:01:42;102416.28;;;9.39;36.67
74045;BME280;62389;51.412;5.436;2023-02-26T11:04:12;102416.22;;;9.42;35.27
74045;BME280;62389;51.412;5.436;2023-02-26T11:06:41;102413.50;;;9.50;36.55
74045;BME280;62389;51.412;5.436;2023-02-26T11:09:24;102412.53;;;9.57;35.76
74045;BME280;62389;51.412;5.436;2023-02-26T11:11:52;102419.56;;;9.52;35.07
74045;BME280;62389;51.412;5.436;2023-02-26T11:14:17;102415.09;;;9.60;37.14
74045;BME280;62389;51.412;5.436;2023-02-26T11:16:54;102418.69;;;9.53;36.03
74045;BME280;62389;51.412;5.436;2023-02-26T11:19:28;102428.44;;;9.39;35.82
74045;BME280;62389;51.412;5.436;2023-02-26T11:21:55;102419.69;;;9.44;35.24
74045;BME280;62389;51.412;5.436;2023-02-26T11:24:41;102429.91;;;9.58;35.63
74045;BME280;62389;51.412;5.436;2023-02-26T11:27:15;102420.47;;;9.51;34.43
74045;BME280;62389;51.412;5.436;2023-02-26T11:29:47;102417.91;;;9.46;34.36
74045;BME280;62389;51.412;5.436;2023-02-26T11:32:21;102418.81;;;9.42;34.69
74045;BME280;62389;51.412;5.436;2023-02-26T11:34:49;102424.31;;;9.24;32.49
74045;BME280;62389;51.412;5.436;2023-02-26T11:37:30;102415.00;;;9.01;34.70
74045;BME280;62389;51.412;5.436;2023-02-26T11:40:03;102423.97;;;8.77;35.40
74045;BME280;62389;51.412;5.436;2023-02-26T11:42:34;102415.50;;;8.57;35.86
74045;BME280;62389;51.412;5.436;2023-02-26T11:45:04;102418.97;;;8.57;35.22
74045;BME280;62389;51.412;5.436;2023-02-26T11:47:30;102413.75;;;8.59;35.18
74045;BME280;62389;51.412;5.436;2023-02-26T11:50:00;102410.19;;;8.66;35.61
74045;BME280;62389;51.412;5.436;2023-02-26T11:55:05;102418.72;;;8.80;35.61
74045;BME280;62389;51.412;5.436;2023-02-26T11:57:42;102420.22;;;9.01;35.50
74045;BME280;62389;51.412;5.436;2023-02-26T12:00:19;102413.19;;;9.08;35.69
74045;BME280;62389;51.412;5.436;2023-02-26T12:02:45;102414.19;;;8.99;34.40
74045;BME280;62389;51.412;5.436;2023-02-26T12:05:13;102422.84;;;9.01;33.43
74045;BME280;62389;51.412;5.436;2023-02-26T12:07:40;102415.69;;;9.17;33.17
74045;BME280;62389;51.412;5.436;2023-02-26T12:10:24;102424.16;;;9.34;35.92
74045;BME280;62389;51.412;5.436;2023-02-26T12:13:08;102417.81;;;9.52;34.50
74045;BME280;62389;51.412;5.436;2023-02-26T12:16:12;102427.41;;;9.52;34.28
74045;BME280;62389;51.412;5.436;2023-02-26T12:19:12;102425.66;;;9.54;34.19
74045;BME280;62389;51.412;5.436;2023-02-26T12:22:15;102425.66;;;9.54;34.16
74045;BME280;62389;51.412;5.436;2023-02-26T12:25:07;102423.00;;;9.55;33.72
74045;BME280;62389;51.412;5.436;2023-02-26T12:35:34;102422.81;;;9.68;33.39
74045;BME280;62389;51.412;5.436;2023-02-26T12:38:43;102420.22;;;9.68;33.70
74045;BME280;62389;51.412;5.436;2023-02-26T12:43:48;102412.38;;;9.69;33.08
74045;BME280;62389;51.412;5.436;2023-02-26T12:46:34;102412.38;;;9.69;33.77
74045;BME280;62389;51.412;5.436;2023-02-26T12:49:15;102412.41;;;9.66;32.91
74045;BME280;62389;51.412;5.436;2023-02-26T13:14:21;102399.31;;;10.22;31.95
74045;BME280;62389;51.412;5.436;2023-02-26T13:17:39;102402.50;;;9.86;32.21
74045;BME280;62389;51.412;5.436;2023-02-26T13:20:12;102416.84;;;9.58;32.36
74045;BME280;62389;51.412;5.436;2023-02-26T13:22:44;102411.00;;;9.42;32.93
74045;BME280;62389;51.412;5.436;2023-02-26T13:26:13;102418.22;;;9.22;33.29
74045;BME280;62389;51.412;5.436;2023-02-26T13:31:28;102408.72;;;9.16;33.19
74045;BME280;62389;51.412;5.436;2023-02-26T13:33:58;102415.59;;;9.23;32.46
74045;BME280;62389;51.412;5.436;2023-02-26T13:36:26;102408.66;;;9.22;31.93
74045;BME280;62389;51.412;5.436;2023-02-26T13:52:34;102400.03;;;10.78;30.38
74045;BME280;62389;51.412;5.436;2023-02-26T13:55:03;102402.09;;;10.62;31.57
74045;BME280;62389;51.412;5.436;2023-02-26T13:59:58;102403.94;;;10.06;32.82
74045;BME280;62389;51.412;5.436;2023-02-26T14:02:47;102405.22;;;9.80;33.70
74045;BME280;62389;51.412;5.436;2023-02-26T14:05:29;102401.91;;;9.69;33.98
74045;BME280;62389;51.412;5.436;2023-02-26T14:13:20;102418.41;;;9.08;33.14
74045;BME280;62389;51.412;5.436;2023-02-26T14:15:57;102413.72;;;8.61;33.34
74045;BME280;62389;51.412;5.436;2023-02-26T14:18:35;102412.25;;;8.27;34.62
74045;BME280;62389;51.412;5.436;2023-02-26T14:23:55;102408.78;;;8.30;35.15
74045;BME280;62389;51.412;5.436;2023-02-26T14:26:22;102401.00;;;8.25;34.72
74045;BME280;62389;51.412;5.436;2023-02-26T14:29:11;102404.47;;;8.26;36.13
74045;BME280;62389;51.412;5.436;2023-02-26T14:34:25;102409.66;;;8.29;35.13
74045;BME280;62389;51.412;5.436;2023-02-26T14:36:57;102405.25;;;8.32;34.69
74045;BME280;62389;51.412;5.436;2023-02-26T14:41:58;102404.59;;;8.14;35.08
74045;BME280;62389;51.412;5.436;2023-02-26T14:44:28;102399.53;;;7.94;34.05
74045;BME280;62389;51.412;5.436;2023-02-26T14:46:55;102410.09;;;7.72;35.28
74045;BME280;62389;51.412;5.436;2023-02-26T14:49:30;102411.88;;;7.67;36.64
74045;BME280;62389;51.412;5.436;2023-02-26T14:57:33;102401.41;;;7.75;37.07
74045;BME280;62389;51.412;5.436;2023-02-26T15:00:45;102397.94;;;7.71;38.15
74045;BME280;62389;51.412;5.436;2023-02-26T15:03:21;102394.53;;;7.65;37.58
74045;BME280;62389;51.412;5.436;2023-02-26T15:08:22;102403.31;;;7.47;37.52
74045;BME280;62389;51.412;5.436;2023-02-26T15:19:58;102409.66;;;6.94;38.32
74045;BME280;62389;51.412;5.436;2023-02-26T15:22:21;102416.59;;;6.87;38.63
74045;BME280;62389;51.412;5.436;2023-02-26T15:24:49;102414.88;;;6.82;38.33
74045;BME280;62389;51.412;5.436;2023-02-26T15:27:16;102421.81;;;6.81;37.73
74045;BME280;62389;51.412;5.436;2023-02-26T15:29:43;102414.03;;;6.80;38.98
74045;BME280;62389;51.412;5.436;2023-02-26T15:32:23;102414.03;;;6.78;38.82